createdAt,value
2022-10-17T00:00:56.323Z,12.74
2022-10-17T00:04:11.319Z,12.82
2022-10-17T00:07:17.990Z,12.85
2022-10-17T00:10:24.890Z,12.90
2022-10-17T00:16:39.824Z,12.92
2022-10-17T00:19:46.515Z,12.95
2022-10-17T00:22:53.552Z,13.01
2022-10-17T00:26:05.999Z,13.02
2022-10-17T00:29:12.932Z,13.02
2022-10-17T00:32:20.090Z,13.03
2022-10-17T00:35:27.219Z,13.04
2022-10-17T00:38:33.830Z,13.08
2022-10-17T00:41:40.828Z,13.11
2022-10-17T00:45:22.647Z,13.12
2022-10-17T00:48:29.478Z,13.12
2022-10-17T00:51:41.992Z,13.12
2022-10-17T00:54:55.594Z,13.13
2022-10-17T00:58:06.230Z,13.15
2022-10-17T01:01:12.789Z,13.16
2022-10-17T01:04:20.340Z,13.18
2022-10-17T01:07:27.900Z,13.21
2022-10-17T01:10:41.718Z,13.29
2022-10-17T01:13:54.635Z,13.35
2022-10-17T01:17:10.837Z,13.39
2022-10-17T01:20:49.249Z,13.42
2022-10-17T01:24:38.817Z,13.50
2022-10-17T01:27:59.394Z,13.56
2022-10-17T01:31:14.029Z,13.63
2022-10-17T01:34:29.651Z,13.68
2022-10-17T01:37:43.596Z,13.71
2022-10-17T01:40:53.603Z,13.72
2022-10-17T01:44:06.369Z,13.73
2022-10-17T01:47:18.792Z,13.70
2022-10-17T01:50:29.743Z,13.63
2022-10-17T01:53:40.017Z,13.55
2022-10-17T01:56:49.819Z,13.54
2022-10-17T01:59:58.276Z,13.52
2022-10-17T02:03:08.774Z,13.50
2022-10-17T02:06:19.669Z,13.49
2022-10-17T02:09:28.260Z,13.51
2022-10-17T02:12:50.922Z,13.49
2022-10-17T02:16:08.233Z,13.47
2022-10-17T02:19:31.859Z,13.51
2022-10-17T02:22:48.767Z,13.51
2022-10-17T02:26:02.885Z,13.51
2022-10-17T02:29:16.012Z,13.56
2022-10-17T02:32:30.027Z,13.59
2022-10-17T02:35:42.244Z,13.58
2022-10-17T02:38:50.696Z,13.59
2022-10-17T02:41:59.926Z,13.62
2022-10-17T02:45:10.159Z,13.67
2022-10-17T02:48:23.570Z,13.71
2022-10-17T02:51:38.160Z,13.76
2022-10-17T02:54:48.965Z,13.79
2022-10-17T02:58:00.250Z,13.79
2022-10-17T03:01:07.486Z,13.78
2022-10-17T03:04:16.202Z,13.74
2022-10-17T03:07:22.727Z,13.69
2022-10-17T03:10:29.377Z,13.59
2022-10-17T03:13:39.015Z,13.52
2022-10-17T03:16:46.715Z,13.43
2022-10-17T03:19:53.841Z,13.37
2022-10-17T03:23:00.812Z,13.29
2022-10-17T03:26:08.614Z,13.19
2022-10-17T03:29:18.421Z,13.07
2022-10-17T03:32:27.981Z,13.00
2022-10-17T03:35:35.041Z,12.93
2022-10-17T03:38:42.904Z,12.86
2022-10-17T03:41:52.735Z,12.78
2022-10-17T03:45:00.039Z,12.70
2022-10-17T03:48:08.417Z,12.62
2022-10-17T03:51:16.673Z,12.53
2022-10-17T03:54:29.970Z,12.45
2022-10-17T03:57:42.154Z,12.39
2022-10-17T04:00:52.668Z,12.32
2022-10-17T04:03:59.325Z,12.25
2022-10-17T04:07:09.318Z,12.20
2022-10-17T04:10:17.974Z,12.15
2022-10-17T04:13:24.800Z,12.13
2022-10-17T04:16:31.994Z,12.11
2022-10-17T04:19:44.150Z,12.09
2022-10-17T04:22:50.730Z,12.08
2022-10-17T04:25:59.882Z,12.07
2022-10-17T04:29:05.931Z,12.05
2022-10-17T04:32:12.908Z,12.03
2022-10-17T04:35:29.521Z,12.02
2022-10-17T04:38:41.574Z,11.98
2022-10-17T04:41:50.398Z,11.96
2022-10-17T04:44:57.003Z,11.95
2022-10-17T04:48:04.743Z,11.90
2022-10-17T04:51:15.898Z,11.85
2022-10-17T04:54:49.390Z,11.78
2022-10-17T04:57:58.045Z,11.72
2022-10-17T05:01:11.907Z,11.67
2022-10-17T05:04:23.920Z,11.61
2022-10-17T05:07:32.188Z,11.57
2022-10-17T05:10:51.236Z,11.54
2022-10-17T05:14:00.420Z,11.53
2022-10-17T05:17:07.191Z,11.50
2022-10-17T05:20:16.508Z,11.45
2022-10-17T05:23:23.344Z,11.41
2022-10-17T05:26:30.419Z,11.37
2022-10-17T05:29:39.190Z,11.33
2022-10-17T05:32:55.599Z,11.35
2022-10-17T05:36:02.995Z,11.37
2022-10-17T05:39:09.919Z,11.38
2022-10-17T05:42:17.220Z,11.41
2022-10-17T05:45:23.986Z,11.48
2022-10-17T05:48:30.749Z,11.52
2022-10-17T05:54:49.936Z,11.62
2022-10-17T05:57:56.741Z,11.68
2022-10-17T06:01:08.228Z,11.76
2022-10-17T06:04:17.547Z,11.85
2022-10-17T06:07:24.328Z,11.94
2022-10-17T06:10:31.762Z,12.04
2022-10-17T06:13:39.280Z,12.14
2022-10-17T06:16:51.687Z,12.25
2022-10-17T06:19:58.596Z,12.35
2022-10-17T06:23:07.905Z,12.45
2022-10-17T06:26:28.126Z,12.56
2022-10-17T06:29:35.074Z,12.70
2022-10-17T06:32:41.983Z,12.81
2022-10-17T06:35:55.813Z,12.92
2022-10-17T06:39:03.751Z,13.03
2022-10-17T06:42:16.176Z,13.14
2022-10-17T06:45:48.541Z,13.28
2022-10-17T06:48:58.541Z,13.37
2022-10-17T06:52:28.905Z,13.48
2022-10-17T06:56:03.098Z,13.60
2022-10-17T06:59:38.901Z,13.72
2022-10-17T07:02:54.662Z,13.83
2022-10-17T07:06:01.650Z,13.95
2022-10-17T07:09:09.606Z,14.07
2022-10-17T07:12:17.107Z,14.19
2022-10-17T07:15:25.135Z,14.31
2022-10-17T07:18:31.793Z,14.42
2022-10-17T07:21:39.351Z,14.55
2022-10-17T07:24:47.644Z,14.68
2022-10-17T07:27:59.791Z,14.82
2022-10-17T07:31:10.606Z,14.97
2022-10-17T07:34:17.449Z,15.08
2022-10-17T07:37:24.623Z,15.19
2022-10-17T07:40:34.875Z,15.30
2022-10-17T07:43:43.041Z,15.42
2022-10-17T07:46:50.308Z,15.55
2022-10-17T07:49:57.879Z,15.67
2022-10-17T07:53:04.598Z,15.78
2022-10-17T07:56:12.469Z,15.88
2022-10-17T07:59:20.125Z,16.01
2022-10-17T08:02:28.771Z,16.16
2022-10-17T08:05:36.528Z,16.31
2022-10-17T08:08:43.752Z,16.44
2022-10-17T08:11:50.679Z,16.55
2022-10-17T08:14:57.256Z,16.66
2022-10-17T08:18:03.914Z,16.75
2022-10-17T08:21:11.262Z,16.85
2022-10-17T08:24:17.969Z,16.91
2022-10-17T08:27:25.580Z,16.96
2022-10-17T08:30:32.499Z,17.02
2022-10-17T08:33:39.789Z,17.07
2022-10-17T08:36:46.532Z,17.11
2022-10-17T08:39:53.070Z,17.16
2022-10-17T08:43:11.922Z,17.21
2022-10-17T08:46:19.644Z,17.30
2022-10-17T08:49:34.986Z,17.43
2022-10-17T08:52:50.743Z,17.57
2022-10-17T08:55:58.952Z,17.75
2022-10-17T08:59:12.409Z,17.93
2022-10-17T09:02:32.578Z,18.09
2022-10-17T09:05:49.425Z,18.30
2022-10-17T09:09:11.215Z,18.47
2022-10-17T09:12:23.314Z,18.63
2022-10-17T09:15:49.386Z,18.77
2022-10-17T09:19:05.136Z,18.88
2022-10-17T09:22:18.044Z,18.98
2022-10-17T09:25:25.040Z,19.06
2022-10-17T09:28:35.261Z,19.14
2022-10-17T09:31:48.470Z,19.26
2022-10-17T09:34:55.809Z,19.37
2022-10-17T09:38:02.555Z,19.51
2022-10-17T09:41:43.146Z,19.68
2022-10-17T09:44:51.792Z,19.84
2022-10-17T09:48:07.145Z,19.97
2022-10-17T09:51:25.754Z,20.16
2022-10-17T09:54:42.686Z,20.36
2022-10-17T09:57:58.203Z,20.59
2022-10-17T10:01:23.725Z,20.82
2022-10-17T10:04:41.538Z,21.04
2022-10-17T10:08:07.656Z,21.28
2022-10-17T10:11:15.152Z,21.50
2022-10-17T10:14:25.284Z,21.71
2022-10-17T10:17:38.271Z,21.91
2022-10-17T10:20:46.918Z,22.12
2022-10-17T10:24:15.539Z,22.31
2022-10-17T10:27:23.076Z,22.48
2022-10-17T10:30:36.131Z,22.57
2022-10-17T10:33:50.525Z,22.73
2022-10-17T10:37:03.766Z,22.87
2022-10-17T10:40:21.193Z,22.96
2022-10-17T10:43:34.330Z,23.06
2022-10-17T10:46:43.741Z,23.15
2022-10-17T10:49:51.469Z,23.25
2022-10-17T10:53:10.982Z,23.29
2022-10-17T10:56:21.668Z,23.30
2022-10-17T10:59:37.037Z,23.38
2022-10-17T11:02:54.213Z,23.51
2022-10-17T11:06:06.533Z,23.68
2022-10-17T11:09:28.826Z,23.85
2022-10-17T11:16:00.280Z,24.06
2022-10-17T11:19:14.683Z,24.14
2022-10-17T11:22:29.304Z,24.23
2022-10-17T11:25:38.792Z,24.28
2022-10-17T11:28:45.739Z,24.35
2022-10-17T11:31:58.238Z,24.45
2022-10-17T11:35:09.239Z,24.53
2022-10-17T11:38:22.010Z,24.59
2022-10-17T11:41:35.261Z,24.73
2022-10-17T11:44:42.829Z,24.87
2022-10-17T11:47:51.916Z,24.96
2022-10-17T11:54:38.860Z,25.22
2022-10-17T11:57:53.599Z,25.34
2022-10-17T12:01:08.329Z,25.49
2022-10-17T12:04:25.463Z,25.60
2022-10-17T12:07:39.479Z,25.62
2022-10-17T12:10:53.400Z,25.66
2022-10-17T12:14:04.926Z,25.78
2022-10-17T12:17:33.102Z,25.87
2022-10-17T12:20:41.450Z,25.92
2022-10-17T12:23:55.437Z,25.98
2022-10-17T12:27:31.812Z,26.06
2022-10-17T12:30:50.418Z,26.12
2022-10-17T12:34:00.086Z,26.12
2022-10-17T12:37:15.103Z,26.12
2022-10-17T12:40:58.700Z,26.15
2022-10-17T12:44:39.371Z,26.18
2022-10-17T12:47:47.167Z,26.19
2022-10-17T12:51:30.815Z,26.23
2022-10-17T12:54:37.950Z,26.29
2022-10-17T12:57:58.714Z,26.34
2022-10-17T13:01:23.547Z,26.37
2022-10-17T13:04:32.218Z,26.30
2022-10-17T13:07:42.121Z,26.20
2022-10-17T13:10:52.554Z,26.10
2022-10-17T13:14:02.658Z,26.00
2022-10-17T13:17:27.696Z,25.87
2022-10-17T13:20:35.071Z,25.72
2022-10-17T13:23:41.828Z,25.69
2022-10-17T13:26:48.809Z,25.78
2022-10-17T13:29:57.408Z,25.92
2022-10-17T13:33:04.952Z,26.02
2022-10-17T13:36:19.259Z,26.10
2022-10-17T13:39:44.932Z,26.20
2022-10-17T13:42:53.655Z,26.28
2022-10-17T13:46:32.526Z,26.37
2022-10-17T13:49:36.297Z,26.40
2022-10-17T13:52:43.078Z,26.30
2022-10-17T13:56:27.882Z,26.21
2022-10-17T13:59:33.679Z,26.15
2022-10-17T14:02:41.842Z,26.08
2022-10-17T14:06:12.359Z,25.97
2022-10-17T14:09:24.638Z,25.82
2022-10-17T14:12:31.398Z,25.66
2022-10-17T14:15:39.083Z,25.47
2022-10-17T14:18:50.763Z,25.30
2022-10-17T14:22:15.878Z,25.18
2022-10-17T14:25:35.769Z,25.07
2022-10-17T14:28:44.523Z,24.91
2022-10-17T14:31:53.631Z,24.80
2022-10-17T14:35:18.886Z,24.65
2022-10-17T14:38:31.410Z,24.46
2022-10-17T14:41:44.032Z,24.28
2022-10-17T14:44:55.455Z,24.18
2022-10-17T14:48:10.977Z,24.17
2022-10-17T14:51:19.777Z,24.20
2022-10-17T14:54:29.196Z,24.14
2022-10-17T14:57:46.453Z,24.05
2022-10-17T15:00:53.129Z,23.91
2022-10-17T15:03:59.747Z,23.74
2022-10-17T15:07:06.974Z,23.56
2022-10-17T15:10:27.096Z,23.35
2022-10-17T15:13:40.088Z,23.14
2022-10-17T15:16:49.357Z,22.94
2022-10-17T15:19:56.503Z,22.74
2022-10-17T15:23:04.130Z,22.54
2022-10-17T15:26:16.641Z,22.33
2022-10-17T15:29:23.304Z,22.12
2022-10-17T15:32:30.041Z,21.92
2022-10-17T15:35:37.704Z,21.72
2022-10-17T15:38:44.244Z,21.54
2022-10-17T15:41:50.993Z,21.34
2022-10-17T15:44:58.472Z,21.18
2022-10-17T15:48:08.592Z,20.99
2022-10-17T15:51:15.489Z,20.81
2022-10-17T15:54:22.345Z,20.63
2022-10-17T15:57:32.376Z,20.45
2022-10-17T16:00:41.591Z,20.27
2022-10-17T16:03:50.343Z,20.11
2022-10-17T16:06:57.020Z,19.97
2022-10-17T16:10:03.711Z,19.84
2022-10-17T16:13:19.359Z,19.72
2022-10-17T16:16:26.028Z,19.59
2022-10-17T16:19:32.884Z,19.47
2022-10-17T16:22:41.754Z,19.35
2022-10-17T16:25:47.130Z,19.23
2022-10-17T16:28:55.025Z,19.10
2022-10-17T16:32:01.697Z,18.97
2022-10-17T16:35:10.100Z,18.86
2022-10-17T16:38:16.690Z,18.76
2022-10-17T16:41:26.257Z,18.66
2022-10-17T16:44:32.893Z,18.58
2022-10-17T16:47:39.537Z,18.49
2022-10-17T16:50:46.078Z,18.39
2022-10-17T16:53:56.706Z,18.29
2022-10-17T16:57:03.794Z,18.16
2022-10-17T17:00:14.096Z,18.05
2022-10-17T17:03:20.769Z,17.92
2022-10-17T17:06:29.109Z,17.79
2022-10-17T17:09:35.694Z,17.67
2022-10-17T17:12:42.393Z,17.58
2022-10-17T17:15:53.617Z,17.51
2022-10-17T17:19:04.720Z,17.43
2022-10-17T17:22:11.244Z,17.37
2022-10-17T17:25:17.956Z,17.31
2022-10-17T17:28:28.799Z,17.24
2022-10-17T17:31:39.012Z,17.15
2022-10-17T17:34:45.691Z,17.05
2022-10-17T17:37:52.326Z,16.94
2022-10-17T17:40:59.462Z,16.83
2022-10-17T17:44:09.212Z,16.72
2022-10-17T17:47:17.937Z,16.62
2022-10-17T17:50:24.721Z,16.54
2022-10-17T17:53:31.386Z,16.47
2022-10-17T17:56:38.164Z,16.42
2022-10-17T17:59:45.179Z,16.39
2022-10-17T18:02:53.917Z,16.35
2022-10-17T18:06:00.572Z,16.31
2022-10-17T18:09:08.238Z,16.27
2022-10-17T18:12:15.086Z,16.26
2022-10-17T18:15:21.984Z,16.25
2022-10-17T18:18:31.500Z,16.23
2022-10-17T18:21:38.656Z,16.21
2022-10-17T18:24:45.504Z,16.18
2022-10-17T18:27:52.255Z,16.14
2022-10-17T18:30:59.318Z,16.10
2022-10-17T18:34:09.606Z,16.04
2022-10-17T18:37:16.328Z,16.00
2022-10-17T18:40:22.974Z,15.98
2022-10-17T18:43:29.733Z,15.95
2022-10-17T18:46:41.009Z,15.92
2022-10-17T18:49:48.684Z,15.89
2022-10-17T18:52:55.337Z,15.85
2022-10-17T18:56:03.447Z,15.82
2022-10-17T18:59:10.484Z,15.79
2022-10-17T19:02:17.244Z,15.76
2022-10-17T19:05:23.903Z,15.73
2022-10-17T19:08:30.586Z,15.68
2022-10-17T19:11:39.062Z,15.64
2022-10-17T19:14:45.742Z,15.59
2022-10-17T19:17:52.380Z,15.56
2022-10-17T19:21:05.959Z,15.53
2022-10-17T19:24:15.839Z,15.50
2022-10-17T19:27:22.565Z,15.48
2022-10-17T19:30:29.171Z,15.44
2022-10-17T19:33:36.571Z,15.40
2022-10-17T19:36:43.838Z,15.37
2022-10-17T19:39:50.786Z,15.38
2022-10-17T19:42:57.463Z,15.39
2022-10-17T19:46:06.416Z,15.40
2022-10-17T19:49:14.621Z,15.43
2022-10-17T19:52:21.381Z,15.45
2022-10-17T19:55:28.161Z,15.46
2022-10-17T19:58:43.770Z,15.45
2022-10-17T20:01:50.567Z,15.39
2022-10-17T20:05:13.971Z,15.32
2022-10-17T20:11:36.108Z,15.16
2022-10-17T20:14:42.815Z,15.13
2022-10-17T20:17:49.404Z,15.11
2022-10-17T20:20:56.782Z,15.08
2022-10-17T20:24:06.002Z,15.06
2022-10-17T20:27:11.201Z,15.04
2022-10-17T20:30:18.029Z,14.98
2022-10-17T20:33:27.309Z,14.92
2022-10-17T20:36:37.599Z,14.82
2022-10-17T20:39:45.184Z,14.73
2022-10-17T20:42:51.653Z,14.62
2022-10-17T20:46:04.606Z,14.52
2022-10-17T20:49:18.705Z,14.44
2022-10-17T20:52:25.372Z,14.35
2022-10-17T20:55:32.848Z,14.30
2022-10-17T20:58:39.751Z,14.25
2022-10-17T21:01:47.650Z,14.21
2022-10-17T21:04:54.424Z,14.18
2022-10-17T21:08:02.764Z,14.15
2022-10-17T21:11:14.867Z,14.10
2022-10-17T21:14:21.624Z,14.07
2022-10-17T21:17:28.695Z,14.02
2022-10-17T21:20:35.303Z,13.98
2022-10-17T21:23:42.993Z,13.95
2022-10-17T21:26:55.298Z,13.91
2022-10-17T21:30:05.312Z,13.88
2022-10-17T21:33:11.944Z,13.85
2022-10-17T21:36:19.260Z,13.83
2022-10-17T21:39:26.080Z,13.78
2022-10-17T21:42:33.078Z,13.72
2022-10-17T21:45:40.253Z,13.66
2022-10-17T21:48:48.816Z,13.63
2022-10-17T21:51:55.516Z,13.59
2022-10-17T21:55:02.129Z,13.56
2022-10-17T21:58:08.640Z,13.54
2022-10-17T22:01:17.506Z,13.51
2022-10-17T22:04:24.084Z,13.50
2022-10-17T22:07:30.797Z,13.50
2022-10-17T22:10:40.994Z,13.48
2022-10-17T22:13:48.083Z,13.47
2022-10-17T22:16:55.528Z,13.43
2022-10-17T22:20:04.151Z,13.40
2022-10-17T22:23:10.777Z,13.37
2022-10-17T22:26:17.861Z,13.35
2022-10-17T22:29:24.692Z,13.33
2022-10-17T22:32:31.359Z,13.32
2022-10-17T22:35:38.297Z,13.33
2022-10-17T22:38:44.934Z,13.33
2022-10-17T22:41:51.533Z,13.34
2022-10-17T22:44:58.305Z,13.35
2022-10-17T22:48:05.195Z,13.36
2022-10-17T22:51:12.355Z,13.36
2022-10-17T22:54:20.127Z,13.35
2022-10-17T22:57:26.746Z,13.33
2022-10-17T23:00:33.347Z,13.30
2022-10-17T23:03:40.014Z,13.22
2022-10-17T23:06:46.806Z,13.13
2022-10-17T23:09:53.768Z,13.07
2022-10-17T23:13:00.570Z,13.01
2022-10-17T23:16:07.986Z,12.93
2022-10-17T23:19:14.581Z,12.88
2022-10-17T23:22:21.314Z,12.84
2022-10-17T23:25:28.365Z,12.78
2022-10-17T23:28:35.760Z,12.72
2022-10-17T23:31:42.776Z,12.70
2022-10-17T23:34:49.758Z,12.67
2022-10-17T23:37:56.482Z,12.65
2022-10-17T23:41:06.903Z,12.62
2022-10-17T23:44:14.104Z,12.56
2022-10-17T23:47:21.151Z,12.50
2022-10-17T23:50:27.960Z,12.42
2022-10-17T23:53:34.921Z,12.32
2022-10-17T23:56:43.726Z,12.20
2022-10-17T23:59:50.547Z,12.09
